createdAt,value
2019-06-07T00:02:08.201Z,19.13
2019-06-07T00:04:43.284Z,19.06
2019-06-07T00:07:21.749Z,19.15
2019-06-07T00:09:51.783Z,19.12
2019-06-07T00:12:23.849Z,19.27
2019-06-07T00:14:55.895Z,19.44
2019-06-07T00:17:30.505Z,19.17
2019-06-07T00:20:04.150Z,19.00
2019-06-07T00:22:35.811Z,19.01
2019-06-07T00:25:12.068Z,19.01
2019-06-07T00:27:43.929Z,18.92
2019-06-07T00:30:50.784Z,18.81
2019-06-07T00:33:21.097Z,18.80
2019-06-07T00:35:53.244Z,18.76
2019-06-07T00:38:26.097Z,18.83
2019-06-07T00:41:00.920Z,18.77
2019-06-07T00:43:33.295Z,18.80
2019-06-07T00:46:18.135Z,18.80
2019-06-07T00:48:51.847Z,18.68
2019-06-07T00:51:26.854Z,18.64
2019-06-07T00:53:58.996Z,18.81
2019-06-07T00:56:31.065Z,18.75
2019-06-07T00:59:11.211Z,18.71
2019-06-07T01:01:44.254Z,18.63
2019-06-07T01:04:21.270Z,18.47
2019-06-07T01:06:55.923Z,18.48
2019-06-07T01:09:30.261Z,18.42
2019-06-07T01:12:02.276Z,18.34
2019-06-07T01:14:34.271Z,18.32
2019-06-07T01:17:40.086Z,18.34
2019-06-07T01:20:02.373Z,18.31
2019-06-07T01:22:37.840Z,18.17
2019-06-07T01:25:10.439Z,18.06
2019-06-07T01:27:41.645Z,18.05
2019-06-07T01:30:35.921Z,18.14
2019-06-07T01:33:10.998Z,18.05
2019-06-07T01:35:45.290Z,17.95
2019-06-07T01:38:21.985Z,17.94
2019-06-07T01:40:56.104Z,17.88
2019-06-07T01:43:30.859Z,17.92
2019-06-07T01:46:01.334Z,17.85
2019-06-07T01:48:48.981Z,17.96
2019-06-07T01:51:12.084Z,18.04
2019-06-07T01:53:45.260Z,17.91
2019-06-07T01:56:22.555Z,17.70
2019-06-07T01:58:56.259Z,17.86
2019-06-07T02:01:35.070Z,17.92
2019-06-07T02:04:06.316Z,17.85
2019-06-07T02:06:41.333Z,17.80
2019-06-07T02:09:16.635Z,17.75
2019-06-07T02:11:51.370Z,17.77
2019-06-07T02:14:27.374Z,17.81
2019-06-07T02:17:01.389Z,17.81
2019-06-07T02:19:34.667Z,17.79
2019-06-07T02:22:07.560Z,17.73
2019-06-07T02:24:40.455Z,17.69
2019-06-07T02:27:14.424Z,17.68
2019-06-07T02:29:47.080Z,17.69
2019-06-07T02:32:18.816Z,17.66
2019-06-07T02:34:52.259Z,17.65
2019-06-07T02:37:31.582Z,16.63
2019-06-07T02:40:01.918Z,17.66
2019-06-07T02:42:41.866Z,17.61
2019-06-07T02:45:11.065Z,17.63
2019-06-07T02:48:01.815Z,17.63
2019-06-07T02:50:39.026Z,17.60
2019-06-07T02:53:11.543Z,17.56
2019-06-07T02:56:33.201Z,17.67
2019-06-07T02:58:17.887Z,17.59
2019-06-07T03:01:06.478Z,17.55
2019-06-07T03:03:32.615Z,17.64
2019-06-07T03:06:14.554Z,17.62
2019-06-07T03:08:47.658Z,17.64
2019-06-07T03:11:24.354Z,17.65
2019-06-07T03:13:57.323Z,17.60
2019-06-07T03:16:37.359Z,17.59
2019-06-07T03:19:18.397Z,17.52
2019-06-07T03:21:50.409Z,17.52
2019-06-07T03:24:29.599Z,17.62
2019-06-07T03:29:40.982Z,17.54
2019-06-07T03:32:11.888Z,17.69
2019-06-07T03:34:44.846Z,17.61
2019-06-07T03:37:16.063Z,17.72
2019-06-07T03:39:49.745Z,17.61
2019-06-07T03:42:21.978Z,17.68
2019-06-07T03:44:55.006Z,17.81
2019-06-07T03:47:32.378Z,17.81
2019-06-07T03:50:05.679Z,17.66
2019-06-07T03:52:41.630Z,17.71
2019-06-07T03:55:40.418Z,17.78
2019-06-07T04:00:51.262Z,17.87
2019-06-07T04:03:33.387Z,17.83
2019-06-07T04:06:01.128Z,17.88
2019-06-07T04:08:41.382Z,17.93
2019-06-07T04:11:14.149Z,18.01
2019-06-07T04:13:46.075Z,17.97
2019-06-07T04:16:18.182Z,17.97
2019-06-07T04:18:51.101Z,17.99
2019-06-07T04:21:24.081Z,18.02
2019-06-07T04:23:56.954Z,17.97
2019-06-07T04:26:31.387Z,18.09
2019-06-07T04:29:32.364Z,18.10
2019-06-07T04:31:43.129Z,18.09
2019-06-07T04:34:16.889Z,18.15
2019-06-07T04:36:59.147Z,18.25
2019-06-07T04:39:26.467Z,18.17
2019-06-07T04:42:01.135Z,18.17
2019-06-07T04:44:39.354Z,18.14
2019-06-07T04:47:15.809Z,18.36
2019-06-07T04:49:49.747Z,18.62
2019-06-07T04:52:23.426Z,18.55
2019-06-07T04:54:56.996Z,18.48
2019-06-07T04:57:34.845Z,18.45
2019-06-07T05:02:51.943Z,18.56
2019-06-07T05:05:27.052Z,18.53
2019-06-07T05:07:58.257Z,18.40
2019-06-07T05:10:35.086Z,18.45
2019-06-07T05:13:08.517Z,18.52
2019-06-07T05:15:42.354Z,18.65
2019-06-07T05:18:14.184Z,18.75
2019-06-07T05:20:46.975Z,18.73
2019-06-07T05:24:00.137Z,18.68
2019-06-07T05:26:04.726Z,18.68
2019-06-07T05:28:42.316Z,18.54
2019-06-07T05:31:11.743Z,18.68
2019-06-07T05:33:44.430Z,18.74
2019-06-07T05:36:16.376Z,18.66
2019-06-07T05:38:48.411Z,18.88
2019-06-07T05:41:21.713Z,18.81
2019-06-07T05:44:12.141Z,18.81
2019-06-07T05:46:33.819Z,18.90
2019-06-07T05:49:06.471Z,18.88
2019-06-07T05:51:41.915Z,18.90
2019-06-07T05:54:14.840Z,19.07
2019-06-07T05:56:47.498Z,19.15
2019-06-07T05:59:23.285Z,19.28
2019-06-07T06:02:03.192Z,19.13
2019-06-07T06:04:29.789Z,19.13
2019-06-07T06:07:03.849Z,19.30
2019-06-07T06:09:36.452Z,19.40
2019-06-07T06:12:11.459Z,19.38
2019-06-07T06:14:46.891Z,19.61
2019-06-07T06:17:18.610Z,19.48
2019-06-07T06:19:53.586Z,19.55
2019-06-07T06:22:28.170Z,19.76
2019-06-07T06:25:30.751Z,19.97
2019-06-07T06:28:10.093Z,19.90
2019-06-07T06:30:25.221Z,19.88
2019-06-07T06:32:58.753Z,20.03
2019-06-07T06:35:33.042Z,20.17
2019-06-07T06:38:05.927Z,20.18
2019-06-07T06:40:44.307Z,20.13
2019-06-07T06:43:16.152Z,20.09
2019-06-07T06:45:55.813Z,19.90
2019-06-07T06:48:29.405Z,19.75
2019-06-07T06:51:00.949Z,19.96
2019-06-07T06:53:34.900Z,20.16
2019-06-07T06:56:10.397Z,20.02
2019-06-07T06:59:33.972Z,20.08
2019-06-07T07:01:20.523Z,20.32
2019-06-07T07:04:10.559Z,20.41
2019-06-07T07:06:29.782Z,20.27
2019-06-07T07:09:05.783Z,20.10
2019-06-07T07:11:56.310Z,20.08
2019-06-07T07:14:15.528Z,20.28
2019-06-07T07:16:53.632Z,20.50
2019-06-07T07:19:21.905Z,20.64
2019-06-07T07:21:55.602Z,20.58
2019-06-07T07:24:29.052Z,20.83
2019-06-07T07:27:02.082Z,21.03
2019-06-07T07:29:33.720Z,20.89
2019-06-07T07:32:06.250Z,20.79
2019-06-07T07:34:38.102Z,21.01
2019-06-07T07:37:12.163Z,20.99
2019-06-07T07:39:48.113Z,21.10
2019-06-07T07:42:21.501Z,21.11
2019-06-07T07:44:55.121Z,21.30
2019-06-07T07:47:27.403Z,21.04
2019-06-07T07:50:01.861Z,21.09
2019-06-07T07:52:40.205Z,21.44
2019-06-07T07:55:16.641Z,21.53
2019-06-07T07:57:58.124Z,21.64
2019-06-07T08:00:50.216Z,21.76
2019-06-07T08:03:04.579Z,21.82
2019-06-07T08:05:42.849Z,21.86
2019-06-07T08:08:11.418Z,22.44
2019-06-07T08:10:44.375Z,22.69
2019-06-07T08:13:26.949Z,23.12
2019-06-07T08:15:54.408Z,22.68
2019-06-07T08:18:26.699Z,22.90
2019-06-07T08:21:21.560Z,22.99
2019-06-07T08:23:36.221Z,23.66
2019-06-07T08:26:10.307Z,24.20
2019-06-07T08:28:44.229Z,24.83
2019-06-07T08:31:16.914Z,24.14
2019-06-07T08:33:50.197Z,23.60
2019-06-07T08:36:40.847Z,24.30
2019-06-07T08:39:05.683Z,24.15
2019-06-07T08:41:32.525Z,23.76
2019-06-07T08:44:22.669Z,23.75
2019-06-07T08:46:41.591Z,24.28
2019-06-07T08:49:15.558Z,23.99
2019-06-07T08:51:47.575Z,24.19
2019-06-07T08:54:23.001Z,24.87
2019-06-07T08:57:06.555Z,25.52
2019-06-07T08:59:28.490Z,25.77
2019-06-07T09:02:19.985Z,25.34
2019-06-07T09:04:37.881Z,26.02
2019-06-07T09:07:19.212Z,26.58
2019-06-07T09:09:43.719Z,26.55
2019-06-07T09:12:17.607Z,26.60
2019-06-07T09:15:07.317Z,26.33
2019-06-07T09:17:24.930Z,26.02
2019-06-07T09:19:59.033Z,25.95
2019-06-07T09:22:31.667Z,26.15
2019-06-07T09:25:20.069Z,25.30
2019-06-07T09:27:41.970Z,26.11
2019-06-07T09:30:39.457Z,26.47
2019-06-07T09:33:11.454Z,26.64
2019-06-07T09:35:46.041Z,26.76
2019-06-07T09:38:25.676Z,27.12
2019-06-07T09:40:53.630Z,27.25
2019-06-07T09:46:04.028Z,25.85
2019-06-07T09:49:09.713Z,26.22
2019-06-07T09:51:19.109Z,27.11
2019-06-07T09:53:43.787Z,26.71
2019-06-07T09:56:17.759Z,26.61
2019-06-07T09:58:53.964Z,26.88
2019-06-07T10:01:27.077Z,26.79
2019-06-07T10:04:04.677Z,27.00
2019-06-07T10:06:34.934Z,27.31
2019-06-07T10:11:43.706Z,27.32
2019-06-07T10:14:17.746Z,27.39
2019-06-07T10:16:51.154Z,27.22
2019-06-07T10:19:26.616Z,27.54
2019-06-07T10:21:59.168Z,27.81
2019-06-07T10:24:30.980Z,27.73
2019-06-07T10:27:04.038Z,27.47
2019-06-07T10:29:36.954Z,26.73
2019-06-07T10:32:09.237Z,27.03
2019-06-07T10:34:43.237Z,27.36
2019-06-07T10:37:16.091Z,27.51
2019-06-07T10:39:49.395Z,27.23
2019-06-07T10:42:21.006Z,27.73
2019-06-07T10:44:56.721Z,28.56
2019-06-07T10:47:29.130Z,27.93
2019-06-07T10:50:02.275Z,28.23
2019-06-07T10:52:45.336Z,28.40
2019-06-07T10:55:20.650Z,28.51
2019-06-07T10:57:53.728Z,28.30
2019-06-07T11:00:27.291Z,28.92
2019-06-07T11:02:59.051Z,28.55
2019-06-07T11:05:33.981Z,29.08
2019-06-07T11:08:06.222Z,29.44
2019-06-07T11:10:39.697Z,28.80
2019-06-07T11:13:12.507Z,28.41
2019-06-07T11:15:45.376Z,28.34
2019-06-07T11:18:18.918Z,28.53
2019-06-07T11:20:52.575Z,28.97
2019-06-07T11:23:26.311Z,28.49
2019-06-07T11:25:59.493Z,28.44
2019-06-07T11:28:32.169Z,28.36
2019-06-07T11:31:08.432Z,28.27
2019-06-07T11:33:41.217Z,28.23
2019-06-07T11:36:15.501Z,28.32
2019-06-07T11:38:49.165Z,28.01
2019-06-07T11:41:24.036Z,28.24
2019-06-07T11:43:59.806Z,27.16
2019-06-07T11:46:32.720Z,28.53
2019-06-07T11:49:08.235Z,28.19
2019-06-07T11:51:41.798Z,28.27
2019-06-07T11:54:14.074Z,28.14
2019-06-07T11:56:48.222Z,28.09
2019-06-07T11:59:21.418Z,27.91
2019-06-07T12:01:54.414Z,28.52
2019-06-07T12:04:34.479Z,28.51
2019-06-07T12:07:03.719Z,28.07
2019-06-07T12:09:37.737Z,28.48
2019-06-07T12:12:10.267Z,28.56
2019-06-07T12:14:44.409Z,28.40
2019-06-07T12:17:17.640Z,28.76
2019-06-07T12:19:50.468Z,28.18
2019-06-07T12:22:23.474Z,27.54
2019-06-07T12:24:57.561Z,27.44
2019-06-07T12:27:30.595Z,26.88
2019-06-07T12:30:27.690Z,27.48
2019-06-07T12:32:56.735Z,27.58
2019-06-07T12:35:32.581Z,27.60
2019-06-07T12:38:05.713Z,27.72
2019-06-07T12:40:39.376Z,27.60
2019-06-07T12:43:12.395Z,27.92
2019-06-07T12:45:46.158Z,28.30
2019-06-07T12:48:23.756Z,28.09
2019-06-07T12:50:53.729Z,28.36
2019-06-07T12:53:29.177Z,28.72
2019-06-07T12:56:03.476Z,29.22
2019-06-07T12:58:39.447Z,29.71
2019-06-07T13:01:11.499Z,29.70
2019-06-07T13:03:47.430Z,29.46
2019-06-07T13:06:23.708Z,28.56
2019-06-07T13:08:56.999Z,28.26
2019-06-07T13:11:31.786Z,28.17
2019-06-07T13:14:03.866Z,28.12
2019-06-07T13:16:35.826Z,28.23
2019-06-07T13:19:08.867Z,28.13
2019-06-07T13:21:40.922Z,28.32
2019-06-07T13:24:16.228Z,28.33
2019-06-07T13:26:47.932Z,28.56
2019-06-07T13:29:21.091Z,28.49
2019-06-07T13:31:56.578Z,28.47
2019-06-07T13:34:29.071Z,27.87
2019-06-07T13:37:01.942Z,28.10
2019-06-07T13:39:33.525Z,28.25
2019-06-07T13:42:06.440Z,28.38
2019-06-07T13:44:39.960Z,28.65
2019-06-07T13:47:14.114Z,28.56
2019-06-07T13:49:48.007Z,28.68
2019-06-07T13:52:21.739Z,28.50
2019-06-07T13:54:54.034Z,28.49
2019-06-07T13:57:28.178Z,28.84
2019-06-07T14:00:00.063Z,28.64
2019-06-07T14:02:42.665Z,28.58
2019-06-07T14:05:18.996Z,28.83
2019-06-07T14:07:52.871Z,28.70
2019-06-07T14:10:31.873Z,28.66
2019-06-07T14:13:06.423Z,28.40
2019-06-07T14:15:38.952Z,28.36
2019-06-07T14:18:13.987Z,28.06
2019-06-07T14:20:48.214Z,28.26
2019-06-07T14:23:40.135Z,28.69
2019-06-07T14:25:57.979Z,28.61
2019-06-07T14:28:33.724Z,28.75
2019-06-07T14:31:06.952Z,28.74
2019-06-07T14:33:39.992Z,28.53
2019-06-07T14:36:15.911Z,28.72
2019-06-07T14:38:47.345Z,28.86
2019-06-07T14:41:19.133Z,28.78
2019-06-07T14:43:51.209Z,28.41
2019-06-07T14:46:28.188Z,28.24
2019-06-07T14:49:00.234Z,28.16
2019-06-07T14:51:33.846Z,28.29
2019-06-07T14:54:11.377Z,28.28
2019-06-07T14:56:43.206Z,28.34
2019-06-07T14:59:18.159Z,28.20
2019-06-07T15:01:52.475Z,28.22
2019-06-07T15:04:28.582Z,28.33
2019-06-07T15:07:03.550Z,28.41
2019-06-07T15:09:37.133Z,28.29
2019-06-07T15:12:24.671Z,28.27
2019-06-07T15:14:47.087Z,28.16
2019-06-07T15:17:19.567Z,27.82
2019-06-07T15:19:53.663Z,28.00
2019-06-07T15:22:26.301Z,28.04
2019-06-07T15:25:02.404Z,28.02
2019-06-07T15:27:45.859Z,27.94
2019-06-07T15:30:18.467Z,28.17
2019-06-07T15:32:50.465Z,28.22
2019-06-07T15:35:23.751Z,28.25
2019-06-07T15:37:57.369Z,28.28
2019-06-07T15:40:30.906Z,28.13
2019-06-07T15:43:02.483Z,27.91
2019-06-07T15:45:35.619Z,27.97
2019-06-07T15:48:09.493Z,27.92
2019-06-07T15:50:42.700Z,27.84
2019-06-07T15:53:17.238Z,28.03
2019-06-07T15:55:49.440Z,28.01
2019-06-07T15:58:24.214Z,27.93
2019-06-07T16:00:59.304Z,27.99
2019-06-07T16:03:31.591Z,28.08
2019-06-07T16:06:05.900Z,27.89
2019-06-07T16:08:38.641Z,27.83
2019-06-07T16:11:14.204Z,27.81
2019-06-07T16:13:46.640Z,27.75
2019-06-07T16:16:20.415Z,27.81
2019-06-07T16:18:51.732Z,27.06
2019-06-07T16:21:27.403Z,27.71
2019-06-07T16:24:02.559Z,27.74
2019-06-07T16:26:36.077Z,27.79
2019-06-07T16:29:10.066Z,27.78
2019-06-07T16:31:45.061Z,27.83
2019-06-07T16:34:17.790Z,27.91
2019-06-07T16:36:49.986Z,27.87
2019-06-07T16:39:24.572Z,27.70
2019-06-07T16:41:56.832Z,27.75
2019-06-07T16:44:28.063Z,27.96
2019-06-07T16:47:03.481Z,27.83
2019-06-07T16:49:38.678Z,27.82
2019-06-07T16:52:14.550Z,27.89
2019-06-07T16:54:47.950Z,27.72
2019-06-07T16:57:20.955Z,27.69
2019-06-07T16:59:53.011Z,27.70
2019-06-07T17:02:25.120Z,27.60
2019-06-07T17:04:57.813Z,27.47
2019-06-07T17:07:42.289Z,27.49
2019-06-07T17:10:20.444Z,27.58
2019-06-07T17:12:51.904Z,27.56
2019-06-07T17:15:25.992Z,27.53
2019-06-07T17:17:58.025Z,27.61
2019-06-07T17:20:33.867Z,27.62
2019-06-07T17:23:09.396Z,27.71
2019-06-07T17:25:43.951Z,27.57
2019-06-07T17:28:17.785Z,27.72
2019-06-07T17:30:51.989Z,27.73
2019-06-07T17:33:24.304Z,27.76
2019-06-07T17:35:59.798Z,27.62
2019-06-07T17:38:34.043Z,27.61
2019-06-07T17:41:08.276Z,27.53
2019-06-07T17:43:54.777Z,27.47
2019-06-07T17:46:16.363Z,27.38
2019-06-07T17:48:47.732Z,27.39
2019-06-07T17:51:19.648Z,27.29
2019-06-07T17:53:55.016Z,27.15
2019-06-07T17:56:26.250Z,27.27
2019-06-07T17:58:57.890Z,27.23
2019-06-07T18:01:41.183Z,27.07
2019-06-07T18:04:06.891Z,27.17
2019-06-07T18:06:40.173Z,26.91
2019-06-07T18:09:16.826Z,26.80
2019-06-07T18:11:49.984Z,26.77
2019-06-07T18:14:25.513Z,26.65
2019-06-07T18:16:58.255Z,26.69
2019-06-07T18:19:29.546Z,26.59
2019-06-07T18:22:01.486Z,26.56
2019-06-07T18:24:36.270Z,26.60
2019-06-07T18:27:08.673Z,26.63
2019-06-07T18:29:40.456Z,26.71
2019-06-07T18:32:13.788Z,26.58
2019-06-07T18:34:46.697Z,26.58
2019-06-07T18:37:18.509Z,26.45
2019-06-07T18:39:51.112Z,26.29
2019-06-07T18:42:23.537Z,26.33
2019-06-07T18:44:56.520Z,26.15
2019-06-07T18:47:30.452Z,26.20
2019-06-07T18:50:18.602Z,26.28
2019-06-07T18:52:52.672Z,26.31
2019-06-07T18:55:28.203Z,26.19
2019-06-07T18:57:59.662Z,25.97
2019-06-07T19:00:34.667Z,25.96
2019-06-07T19:03:08.817Z,25.87
2019-06-07T19:05:41.902Z,25.81
2019-06-07T19:08:15.549Z,25.83
2019-06-07T19:10:48.968Z,25.81
2019-06-07T19:13:23.534Z,25.60
2019-06-07T19:15:57.474Z,25.60
2019-06-07T19:18:30.542Z,25.68
2019-06-07T19:21:02.636Z,25.62
2019-06-07T19:23:37.527Z,25.77
2019-06-07T19:26:11.666Z,25.90
2019-06-07T19:28:45.731Z,25.88
2019-06-07T19:31:19.840Z,26.42
2019-06-07T19:33:53.043Z,25.69
2019-06-07T19:36:24.835Z,25.86
2019-06-07T19:38:57.847Z,25.79
2019-06-07T19:41:30.849Z,25.05
2019-06-07T19:44:05.414Z,24.69
2019-06-07T19:46:38.719Z,24.33
2019-06-07T19:49:10.743Z,24.82
2019-06-07T19:51:42.781Z,25.15
2019-06-07T19:54:14.871Z,24.94
2019-06-07T19:56:49.128Z,25.18
2019-06-07T19:59:21.765Z,25.52
2019-06-07T20:01:55.750Z,25.70
2019-06-07T20:04:30.588Z,25.99
2019-06-07T20:07:05.214Z,25.71
2019-06-07T20:09:36.925Z,25.88
2019-06-07T20:12:12.403Z,25.87
2019-06-07T20:14:44.880Z,26.04
2019-06-07T20:17:17.909Z,25.66
2019-06-07T20:19:54.129Z,25.78
2019-06-07T20:22:26.003Z,26.16
2019-06-07T20:24:58.848Z,26.17
2019-06-07T20:27:34.821Z,25.73
2019-06-07T20:30:16.909Z,26.15
2019-06-07T20:32:48.929Z,26.30
2019-06-07T20:35:27.377Z,26.41
2019-06-07T20:38:06.983Z,25.49
2019-06-07T20:40:39.044Z,24.64
2019-06-07T20:43:12.082Z,24.50
2019-06-07T20:45:45.157Z,24.52
2019-06-07T20:48:25.480Z,24.91
2019-06-07T20:50:59.269Z,24.73
2019-06-07T20:53:32.220Z,25.34
2019-06-07T20:56:09.190Z,25.75
2019-06-07T20:58:42.248Z,25.94
2019-06-07T21:01:16.901Z,26.01
2019-06-07T21:03:55.222Z,25.95
2019-06-07T21:06:27.061Z,25.78
2019-06-07T21:09:08.015Z,26.22
2019-06-07T21:11:53.611Z,26.14
2019-06-07T21:14:36.521Z,26.26
2019-06-07T21:17:11.485Z,25.67
2019-06-07T21:19:42.762Z,25.71
2019-06-07T21:22:15.657Z,25.65
2019-06-07T21:24:49.272Z,25.02
2019-06-07T21:27:23.184Z,25.23
2019-06-07T21:29:55.252Z,25.47
2019-06-07T21:32:30.723Z,25.20
2019-06-07T21:35:21.315Z,25.34
2019-06-07T21:37:55.127Z,25.02
2019-06-07T21:40:30.445Z,25.21
2019-06-07T21:43:04.345Z,25.40
2019-06-07T21:45:38.350Z,25.50
2019-06-07T21:48:14.188Z,25.42
2019-06-07T21:50:49.519Z,25.16
2019-06-07T21:53:25.025Z,25.06
2019-06-07T21:55:57.503Z,24.85
2019-06-07T21:58:31.340Z,24.96
2019-06-07T22:01:24.439Z,25.20
2019-06-07T22:03:57.618Z,25.19
2019-06-07T22:06:33.822Z,25.43
2019-06-07T22:09:09.742Z,25.38
2019-06-07T22:11:52.003Z,25.05
2019-06-07T22:14:39.100Z,25.18
2019-06-07T22:17:21.687Z,25.44
2019-06-07T22:19:55.783Z,25.61
2019-06-07T22:22:29.635Z,25.75
2019-06-07T22:25:15.145Z,25.77
2019-06-07T22:27:48.065Z,25.56
2019-06-07T22:30:20.149Z,24.81
2019-06-07T22:32:52.759Z,24.77
2019-06-07T22:35:25.639Z,25.06
2019-06-07T22:37:58.663Z,25.30
2019-06-07T22:40:31.698Z,25.37
2019-06-07T22:43:07.648Z,25.31
2019-06-07T22:45:40.748Z,25.41
2019-06-07T22:48:13.419Z,25.45
2019-06-07T22:50:45.778Z,25.52
2019-06-07T22:53:18.690Z,25.56
2019-06-07T22:55:58.341Z,25.47
2019-06-07T22:58:31.728Z,25.32
2019-06-07T23:01:04.675Z,25.35
2019-06-07T23:03:37.712Z,24.63
2019-06-07T23:06:11.095Z,25.41
2019-06-07T23:08:44.705Z,25.39
2019-06-07T23:11:17.761Z,25.16
2019-06-07T23:13:50.622Z,25.07
2019-06-07T23:16:21.850Z,24.76
2019-06-07T23:18:53.633Z,24.26
2019-06-07T23:21:27.721Z,24.07
2019-06-07T23:24:01.819Z,24.27
2019-06-07T23:26:34.908Z,24.40
2019-06-07T23:29:07.884Z,24.37
2019-06-07T23:31:43.374Z,24.44
2019-06-07T23:34:16.930Z,24.51
2019-06-07T23:36:50.826Z,24.41
2019-06-07T23:39:23.209Z,24.56
2019-06-07T23:41:54.954Z,24.52
2019-06-07T23:44:27.952Z,24.44
2019-06-07T23:47:10.704Z,24.62
2019-06-07T23:49:35.980Z,24.66
2019-06-07T23:52:09.068Z,24.52
2019-06-07T23:54:40.276Z,24.23
2019-06-07T23:57:12.134Z,24.17
2019-06-07T23:59:44.028Z,24.11
